Padre Island National Seasho, Texas
Current Conditions -  °F | °C
As of 12:56 AM on Wednesday 22 Oct 2014 (Local Time) from KNGP Reporting Station
Clear Clear  
Wind Chill: 75°   Ceiling: Unl
Heat Index: 75°   Visibility: 10mi
Dew Point: 67°   Wind: 10mph
Humidity: 76%   Direction: 80°E
Pressure: 29.98"   Gusts: NA
Location:  27.6599°N, 97.2972°W
Report Text: KNGP 220556Z AUTO 08009KT 10SM CLR 24/19 A2998 RMK AO2 SLP152 T02390194 10250 20239 402890228 58003
Loading
Personal Weather Stations






























Interactive Weather Map
Tropical Storm Tracking
New forecast layout! Learn more

10-Day Weather Forecast

Advertisements
Track Severe Weather on mobile